sensor_id;sensor_type;location;lat;lon;timestamp;P1;durP1;ratioP1;P2;durP2;ratioP2
67053;SDS011;53960;51.826;5.850;2023-07-28T00:00:42;15.40;;;8.63;;
67053;SDS011;53960;51.826;5.850;2023-07-28T00:03:08;13.73;;;8.02;;
67053;SDS011;53960;51.826;5.850;2023-07-28T00:05:35;14.95;;;8.77;;
67053;SDS011;53960;51.826;5.850;2023-07-28T00:08:01;15.40;;;8.43;;
67053;SDS011;53960;51.826;5.850;2023-07-28T00:10:26;15.50;;;8.73;;
67053;SDS011;53960;51.826;5.850;2023-07-28T00:12:52;16.23;;;9.40;;
67053;SDS011;53960;51.826;5.850;2023-07-28T00:15:17;14.57;;;8.87;;
67053;SDS011;53960;51.826;5.850;2023-07-28T00:17:42;14.30;;;8.53;;
67053;SDS011;53960;51.826;5.850;2023-07-28T00:20:09;14.57;;;8.32;;
67053;SDS011;53960;51.826;5.850;2023-07-28T00:22:35;15.32;;;8.48;;
67053;SDS011;53960;51.826;5.850;2023-07-28T00:25:00;16.13;;;9.20;;
67053;SDS011;53960;51.826;5.850;2023-07-28T00:27:25;14.10;;;8.30;;
67053;SDS011;53960;51.826;5.850;2023-07-28T00:29:51;16.23;;;8.80;;
67053;SDS011;53960;51.826;5.850;2023-07-28T00:32:16;16.37;;;8.90;;
67053;SDS011;53960;51.826;5.850;2023-07-28T00:34:41;14.63;;;8.33;;
67053;SDS011;53960;51.826;5.850;2023-07-28T00:37:07;15.10;;;8.73;;
67053;SDS011;53960;51.826;5.850;2023-07-28T00:39:32;15.77;;;9.03;;
67053;SDS011;53960;51.826;5.850;2023-07-28T00:41:57;15.07;;;8.97;;
67053;SDS011;53960;51.826;5.850;2023-07-28T00:44:23;15.70;;;9.03;;
67053;SDS011;53960;51.826;5.850;2023-07-28T00:46:48;15.63;;;8.53;;
67053;SDS011;53960;51.826;5.850;2023-07-28T00:49:13;16.23;;;9.07;;
67053;SDS011;53960;51.826;5.850;2023-07-28T00:51:39;15.48;;;8.88;;
67053;SDS011;53960;51.826;5.850;2023-07-28T00:54:05;15.60;;;8.57;;
67053;SDS011;53960;51.826;5.850;2023-07-28T00:56:31;15.82;;;8.68;;
67053;SDS011;53960;51.826;5.850;2023-07-28T00:58:56;16.93;;;9.13;;
67053;SDS011;53960;51.826;5.850;2023-07-28T01:01:22;15.80;;;8.70;;
67053;SDS011;53960;51.826;5.850;2023-07-28T01:03:48;15.80;;;9.23;;
67053;SDS011;53960;51.826;5.850;2023-07-28T01:09:08;14.93;;;9.15;;
67053;SDS011;53960;51.826;5.850;2023-07-28T01:11:34;15.00;;;8.43;;
67053;SDS011;53960;51.826;5.850;2023-07-28T01:14:00;16.70;;;9.05;;
67053;SDS011;53960;51.826;5.850;2023-07-28T01:16:25;15.13;;;8.10;;
67053;SDS011;53960;51.826;5.850;2023-07-28T01:18:51;14.85;;;8.18;;
67053;SDS011;53960;51.826;5.850;2023-07-28T01:21:20;14.53;;;8.50;;
67053;SDS011;53960;51.826;5.850;2023-07-28T01:26:34;15.48;;;8.63;;
67053;SDS011;53960;51.826;5.850;2023-07-28T01:29:00;14.68;;;8.60;;
67053;SDS011;53960;51.826;5.850;2023-07-28T01:31:28;16.10;;;9.10;;
67053;SDS011;53960;51.826;5.850;2023-07-28T01:33:54;16.00;;;8.90;;
67053;SDS011;53960;51.826;5.850;2023-07-28T01:36:19;16.63;;;8.27;;
67053;SDS011;53960;51.826;5.850;2023-07-28T01:38:44;16.20;;;9.37;;
67053;SDS011;53960;51.826;5.850;2023-07-28T01:41:10;16.23;;;8.37;;
67053;SDS011;53960;51.826;5.850;2023-07-28T01:43:35;16.30;;;8.60;;
67053;SDS011;53960;51.826;5.850;2023-07-28T01:46:00;15.57;;;8.50;;
67053;SDS011;53960;51.826;5.850;2023-07-28T01:48:26;16.33;;;9.05;;
67053;SDS011;53960;51.826;5.850;2023-07-28T01:50:51;20.43;;;9.07;;
67053;SDS011;53960;51.826;5.850;2023-07-28T01:53:17;18.23;;;9.60;;
67053;SDS011;53960;51.826;5.850;2023-07-28T01:55:42;16.43;;;9.13;;
67053;SDS011;53960;51.826;5.850;2023-07-28T01:58:07;16.15;;;9.05;;
67053;SDS011;53960;51.826;5.850;2023-07-28T02:00:34;15.87;;;9.00;;
67053;SDS011;53960;51.826;5.850;2023-07-28T02:02:59;16.77;;;9.50;;
67053;SDS011;53960;51.826;5.850;2023-07-28T02:05:27;16.87;;;9.57;;
67053;SDS011;53960;51.826;5.850;2023-07-28T02:07:52;18.73;;;9.52;;
67053;SDS011;53960;51.826;5.850;2023-07-28T02:10:18;16.90;;;9.30;;
67053;SDS011;53960;51.826;5.850;2023-07-28T02:12:43;17.37;;;9.20;;
67053;SDS011;53960;51.826;5.850;2023-07-28T02:15:10;18.70;;;9.73;;
67053;SDS011;53960;51.826;5.850;2023-07-28T02:17:36;17.42;;;9.57;;
67053;SDS011;53960;51.826;5.850;2023-07-28T02:20:01;16.47;;;8.60;;
67053;SDS011;53960;51.826;5.850;2023-07-28T02:22:28;18.03;;;9.50;;
67053;SDS011;53960;51.826;5.850;2023-07-28T02:24:54;17.52;;;9.60;;
67053;SDS011;53960;51.826;5.850;2023-07-28T02:27:19;16.90;;;8.83;;
67053;SDS011;53960;51.826;5.850;2023-07-28T02:29:44;16.87;;;8.87;;
67053;SDS011;53960;51.826;5.850;2023-07-28T02:32:10;19.83;;;9.77;;
67053;SDS011;53960;51.826;5.850;2023-07-28T02:34:36;17.20;;;8.93;;
67053;SDS011;53960;51.826;5.850;2023-07-28T02:37:01;17.00;;;9.20;;
67053;SDS011;53960;51.826;5.850;2023-07-28T02:39:27;19.07;;;9.47;;
67053;SDS011;53960;51.826;5.850;2023-07-28T02:41:52;17.85;;;9.20;;
67053;SDS011;53960;51.826;5.850;2023-07-28T02:44:18;17.07;;;9.17;;
67053;SDS011;53960;51.826;5.850;2023-07-28T02:46:43;17.20;;;9.00;;
67053;SDS011;53960;51.826;5.850;2023-07-28T02:49:09;18.27;;;8.23;;
67053;SDS011;53960;51.826;5.850;2023-07-28T02:51:34;18.88;;;9.77;;
67053;SDS011;53960;51.826;5.850;2023-07-28T02:54:00;16.87;;;8.70;;
67053;SDS011;53960;51.826;5.850;2023-07-28T02:56:25;16.83;;;8.40;;
67053;SDS011;53960;51.826;5.850;2023-07-28T02:58:51;17.55;;;8.50;;
67053;SDS011;53960;51.826;5.850;2023-07-28T03:01:16;17.90;;;9.00;;
67053;SDS011;53960;51.826;5.850;2023-07-28T03:03:42;18.57;;;8.80;;
67053;SDS011;53960;51.826;5.850;2023-07-28T03:06:08;17.23;;;8.75;;
67053;SDS011;53960;51.826;5.850;2023-07-28T03:08:33;17.30;;;8.80;;
67053;SDS011;53960;51.826;5.850;2023-07-28T03:10:59;17.77;;;8.90;;
67053;SDS011;53960;51.826;5.850;2023-07-28T03:13:27;16.85;;;8.02;;
67053;SDS011;53960;51.826;5.850;2023-07-28T03:15:52;16.90;;;9.00;;
67053;SDS011;53960;51.826;5.850;2023-07-28T03:18:18;15.70;;;8.13;;
67053;SDS011;53960;51.826;5.850;2023-07-28T03:20:43;15.40;;;8.13;;
67053;SDS011;53960;51.826;5.850;2023-07-28T03:23:08;17.13;;;8.93;;
67053;SDS011;53960;51.826;5.850;2023-07-28T03:25:34;17.57;;;8.53;;
67053;SDS011;53960;51.826;5.850;2023-07-28T03:27:59;18.00;;;8.37;;
67053;SDS011;53960;51.826;5.850;2023-07-28T03:30:24;20.07;;;8.63;;
67053;SDS011;53960;51.826;5.850;2023-07-28T03:32:50;17.90;;;8.55;;
67053;SDS011;53960;51.826;5.850;2023-07-28T03:35:15;18.83;;;8.67;;
67053;SDS011;53960;51.826;5.850;2023-07-28T03:37:40;20.50;;;8.87;;
67053;SDS011;53960;51.826;5.850;2023-07-28T03:40:06;20.77;;;9.30;;
67053;SDS011;53960;51.826;5.850;2023-07-28T03:42:32;19.30;;;8.30;;
67053;SDS011;53960;51.826;5.850;2023-07-28T03:44:57;20.83;;;10.03;;
67053;SDS011;53960;51.826;5.850;2023-07-28T03:47:23;20.53;;;9.77;;
67053;SDS011;53960;51.826;5.850;2023-07-28T03:49:48;20.88;;;9.48;;
67053;SDS011;53960;51.826;5.850;2023-07-28T03:52:14;19.30;;;9.47;;
67053;SDS011;53960;51.826;5.850;2023-07-28T03:54:39;22.23;;;9.30;;
67053;SDS011;53960;51.826;5.850;2023-07-28T03:57:05;21.35;;;10.18;;
67053;SDS011;53960;51.826;5.850;2023-07-28T03:59:30;23.43;;;9.50;;
67053;SDS011;53960;51.826;5.850;2023-07-28T04:01:56;22.53;;;9.40;;
67053;SDS011;53960;51.826;5.850;2023-07-28T04:04:21;20.40;;;9.13;;
67053;SDS011;53960;51.826;5.850;2023-07-28T04:06:47;23.20;;;9.57;;
67053;SDS011;53960;51.826;5.850;2023-07-28T04:09:18;24.23;;;9.77;;
67053;SDS011;53960;51.826;5.850;2023-07-28T04:11:44;21.05;;;9.63;;
67053;SDS011;53960;51.826;5.850;2023-07-28T04:14:10;20.87;;;9.13;;
67053;SDS011;53960;51.826;5.850;2023-07-28T04:16:35;24.77;;;9.90;;
67053;SDS011;53960;51.826;5.850;2023-07-28T04:19:00;23.83;;;10.18;;
67053;SDS011;53960;51.826;5.850;2023-07-28T04:21:26;23.17;;;10.27;;
67053;SDS011;53960;51.826;5.850;2023-07-28T04:23:51;23.13;;;9.90;;
67053;SDS011;53960;51.826;5.850;2023-07-28T04:26:17;31.87;;;11.30;;
67053;SDS011;53960;51.826;5.850;2023-07-28T04:28:43;26.57;;;10.80;;
67053;SDS011;53960;51.826;5.850;2023-07-28T04:31:08;25.20;;;10.50;;
67053;SDS011;53960;51.826;5.850;2023-07-28T04:33:34;26.27;;;10.32;;
67053;SDS011;53960;51.826;5.850;2023-07-28T04:36:00;25.20;;;10.23;;
67053;SDS011;53960;51.826;5.850;2023-07-28T04:38:27;25.92;;;10.73;;
67053;SDS011;53960;51.826;5.850;2023-07-28T04:40:53;25.50;;;10.80;;
67053;SDS011;53960;51.826;5.850;2023-07-28T04:43:18;28.33;;;11.37;;
67053;SDS011;53960;51.826;5.850;2023-07-28T04:45:44;27.85;;;10.85;;
67053;SDS011;53960;51.826;5.850;2023-07-28T04:48:10;28.87;;;11.43;;
67053;SDS011;53960;51.826;5.850;2023-07-28T04:50:35;29.05;;;11.75;;
67053;SDS011;53960;51.826;5.850;2023-07-28T04:53:01;28.33;;;11.80;;
67053;SDS011;53960;51.826;5.850;2023-07-28T04:55:26;25.70;;;11.73;;
67053;SDS011;53960;51.826;5.850;2023-07-28T04:57:52;26.23;;;11.10;;
67053;SDS011;53960;51.826;5.850;2023-07-28T05:00:18;31.60;;;11.88;;
67053;SDS011;53960;51.826;5.850;2023-07-28T05:02:43;28.80;;;11.90;;
67053;SDS011;53960;51.826;5.850;2023-07-28T05:05:09;29.50;;;11.67;;
67053;SDS011;53960;51.826;5.850;2023-07-28T05:07:34;29.92;;;12.10;;
67053;SDS011;53960;51.826;5.850;2023-07-28T05:10:00;29.47;;;11.80;;
67053;SDS011;53960;51.826;5.850;2023-07-28T05:12:25;30.27;;;11.20;;
67053;SDS011;53960;51.826;5.850;2023-07-28T05:14:50;30.90;;;11.13;;
67053;SDS011;53960;51.826;5.850;2023-07-28T05:17:16;29.70;;;12.30;;
67053;SDS011;53960;51.826;5.850;2023-07-28T05:19:41;26.90;;;11.87;;
67053;SDS011;53960;51.826;5.850;2023-07-28T05:22:06;32.87;;;12.67;;
67053;SDS011;53960;51.826;5.850;2023-07-28T05:24:35;27.30;;;11.37;;
67053;SDS011;53960;51.826;5.850;2023-07-28T05:27:00;25.42;;;11.43;;
67053;SDS011;53960;51.826;5.850;2023-07-28T05:29:25;25.53;;;11.17;;
67053;SDS011;53960;51.826;5.850;2023-07-28T05:31:51;29.97;;;12.03;;
67053;SDS011;53960;51.826;5.850;2023-07-28T05:34:16;27.53;;;10.77;;
67053;SDS011;53960;51.826;5.850;2023-07-28T05:36:42;30.07;;;11.87;;
67053;SDS011;53960;51.826;5.850;2023-07-28T05:39:08;29.40;;;11.88;;
67053;SDS011;53960;51.826;5.850;2023-07-28T05:41:33;30.37;;;11.93;;
67053;SDS011;53960;51.826;5.850;2023-07-28T05:43:59;27.80;;;12.32;;
67053;SDS011;53960;51.826;5.850;2023-07-28T05:46:24;28.20;;;11.47;;
67053;SDS011;53960;51.826;5.850;2023-07-28T05:48:50;27.20;;;11.83;;
67053;SDS011;53960;51.826;5.850;2023-07-28T05:51:15;31.77;;;12.77;;
67053;SDS011;53960;51.826;5.850;2023-07-28T05:53:42;26.83;;;11.77;;
67053;SDS011;53960;51.826;5.850;2023-07-28T05:56:07;26.27;;;10.80;;
67053;SDS011;53960;51.826;5.850;2023-07-28T05:58:32;30.40;;;12.80;;
67053;SDS011;53960;51.826;5.850;2023-07-28T06:00:58;29.20;;;11.60;;
67053;SDS011;53960;51.826;5.850;2023-07-28T06:03:24;27.43;;;12.30;;
67053;SDS011;53960;51.826;5.850;2023-07-28T06:05:51;29.67;;;11.73;;
67053;SDS011;53960;51.826;5.850;2023-07-28T06:08:17;27.33;;;11.95;;
67053;SDS011;53960;51.826;5.850;2023-07-28T06:10:42;26.27;;;11.90;;
67053;SDS011;53960;51.826;5.850;2023-07-28T06:13:08;27.40;;;12.00;;
67053;SDS011;53960;51.826;5.850;2023-07-28T06:15:33;28.37;;;11.23;;
67053;SDS011;53960;51.826;5.850;2023-07-28T06:18:00;25.08;;;10.73;;
67053;SDS011;53960;51.826;5.850;2023-07-28T06:20:27;29.90;;;12.13;;
67053;SDS011;53960;51.826;5.850;2023-07-28T06:22:53;26.60;;;11.73;;
67053;SDS011;53960;51.826;5.850;2023-07-28T06:25:18;27.90;;;11.53;;
67053;SDS011;53960;51.826;5.850;2023-07-28T06:27:43;25.57;;;10.97;;
67053;SDS011;53960;51.826;5.850;2023-07-28T06:30:09;25.07;;;10.87;;
67053;SDS011;53960;51.826;5.850;2023-07-28T06:32:35;28.50;;;11.98;;
67053;SDS011;53960;51.826;5.850;2023-07-28T06:35:00;25.73;;;11.33;;
67053;SDS011;53960;51.826;5.850;2023-07-28T06:37:26;26.95;;;12.02;;
67053;SDS011;53960;51.826;5.850;2023-07-28T06:39:52;27.93;;;12.10;;
67053;SDS011;53960;51.826;5.850;2023-07-28T06:42:17;27.52;;;12.48;;
67053;SDS011;53960;51.826;5.850;2023-07-28T06:44:48;28.43;;;12.57;;
67053;SDS011;53960;51.826;5.850;2023-07-28T06:47:14;30.77;;;11.63;;
67053;SDS011;53960;51.826;5.850;2023-07-28T06:49:39;26.33;;;11.87;;
67053;SDS011;53960;51.826;5.850;2023-07-28T06:52:04;28.97;;;11.73;;
67053;SDS011;53960;51.826;5.850;2023-07-28T06:54:30;32.50;;;12.03;;
67053;SDS011;53960;51.826;5.850;2023-07-28T06:56:55;27.70;;;11.67;;
67053;SDS011;53960;51.826;5.850;2023-07-28T06:59:21;28.10;;;12.23;;
67053;SDS011;53960;51.826;5.850;2023-07-28T07:01:46;30.07;;;12.27;;
67053;SDS011;53960;51.826;5.850;2023-07-28T07:04:11;27.80;;;11.43;;
67053;SDS011;53960;51.826;5.850;2023-07-28T07:06:37;28.30;;;12.03;;
67053;SDS011;53960;51.826;5.850;2023-07-28T07:09:02;26.07;;;11.43;;
67053;SDS011;53960;51.826;5.850;2023-07-28T07:11:28;29.50;;;12.02;;
67053;SDS011;53960;51.826;5.850;2023-07-28T07:13:53;28.67;;;12.00;;
67053;SDS011;53960;51.826;5.850;2023-07-28T07:16:19;25.47;;;11.37;;
67053;SDS011;53960;51.826;5.850;2023-07-28T07:18:44;24.70;;;11.37;;
67053;SDS011;53960;51.826;5.850;2023-07-28T07:21:09;26.03;;;11.93;;
67053;SDS011;53960;51.826;5.850;2023-07-28T07:23:35;27.27;;;12.00;;
67053;SDS011;53960;51.826;5.850;2023-07-28T07:26:01;30.13;;;12.43;;
67053;SDS011;53960;51.826;5.850;2023-07-28T07:28:26;29.10;;;12.03;;
67053;SDS011;53960;51.826;5.850;2023-07-28T07:30:53;26.55;;;12.18;;
67053;SDS011;53960;51.826;5.850;2023-07-28T07:33:21;25.83;;;12.43;;
67053;SDS011;53960;51.826;5.850;2023-07-28T07:35:46;27.17;;;11.67;;
67053;SDS011;53960;51.826;5.850;2023-07-28T07:38:12;26.07;;;11.43;;
67053;SDS011;53960;51.826;5.850;2023-07-28T07:40:37;26.00;;;11.27;;
67053;SDS011;53960;51.826;5.850;2023-07-28T07:43:03;24.13;;;10.85;;
67053;SDS011;53960;51.826;5.850;2023-07-28T07:45:32;28.03;;;11.53;;
67053;SDS011;53960;51.826;5.850;2023-07-28T07:47:58;31.50;;;11.93;;
67053;SDS011;53960;51.826;5.850;2023-07-28T07:50:24;28.52;;;11.13;;
67053;SDS011;53960;51.826;5.850;2023-07-28T07:52:49;25.88;;;11.63;;
67053;SDS011;53960;51.826;5.850;2023-07-28T07:55:15;27.60;;;11.87;;
67053;SDS011;53960;51.826;5.850;2023-07-28T07:57:41;25.97;;;11.13;;
67053;SDS011;53960;51.826;5.850;2023-07-28T08:00:06;26.27;;;12.03;;
67053;SDS011;53960;51.826;5.850;2023-07-28T08:02:32;25.33;;;11.48;;
67053;SDS011;53960;51.826;5.850;2023-07-28T08:04:57;25.27;;;10.50;;
67053;SDS011;53960;51.826;5.850;2023-07-28T08:07:23;23.40;;;10.77;;
67053;SDS011;53960;51.826;5.850;2023-07-28T08:09:49;26.27;;;11.37;;
67053;SDS011;53960;51.826;5.850;2023-07-28T08:12:15;27.15;;;11.63;;
67053;SDS011;53960;51.826;5.850;2023-07-28T08:14:40;22.53;;;11.27;;
67053;SDS011;53960;51.826;5.850;2023-07-28T08:17:06;22.63;;;10.63;;
67053;SDS011;53960;51.826;5.850;2023-07-28T08:19:32;23.77;;;10.83;;
67053;SDS011;53960;51.826;5.850;2023-07-28T08:21:57;21.98;;;10.52;;
67053;SDS011;53960;51.826;5.850;2023-07-28T08:24:22;24.43;;;10.87;;
67053;SDS011;53960;51.826;5.850;2023-07-28T08:26:48;22.23;;;11.20;;
67053;SDS011;53960;51.826;5.850;2023-07-28T08:29:14;23.30;;;11.15;;
67053;SDS011;53960;51.826;5.850;2023-07-28T08:31:40;25.73;;;11.43;;
67053;SDS011;53960;51.826;5.850;2023-07-28T08:34:06;27.13;;;12.30;;
67053;SDS011;53960;51.826;5.850;2023-07-28T08:36:32;27.80;;;13.27;;
67053;SDS011;53960;51.826;5.850;2023-07-28T08:38:58;24.90;;;11.83;;
67053;SDS011;53960;51.826;5.850;2023-07-28T08:41:23;25.63;;;11.77;;
67053;SDS011;53960;51.826;5.850;2023-07-28T08:43:49;24.95;;;11.60;;
67053;SDS011;53960;51.826;5.850;2023-07-28T08:46:16;24.88;;;12.43;;
67053;SDS011;53960;51.826;5.850;2023-07-28T08:48:41;23.73;;;11.47;;
67053;SDS011;53960;51.826;5.850;2023-07-28T08:51:07;22.43;;;11.50;;
67053;SDS011;53960;51.826;5.850;2023-07-28T08:53:33;24.17;;;11.35;;
67053;SDS011;53960;51.826;5.850;2023-07-28T08:55:59;24.20;;;12.20;;
67053;SDS011;53960;51.826;5.850;2023-07-28T08:58:24;25.20;;;11.97;;
67053;SDS011;53960;51.826;5.850;2023-07-28T09:00:50;24.20;;;11.80;;
67053;SDS011;53960;51.826;5.850;2023-07-28T09:03:17;23.92;;;11.75;;
67053;SDS011;53960;51.826;5.850;2023-07-28T09:05:43;28.13;;;13.70;;
67053;SDS011;53960;51.826;5.850;2023-07-28T09:08:11;26.75;;;13.50;;
67053;SDS011;53960;51.826;5.850;2023-07-28T09:10:44;28.75;;;14.43;;
67053;SDS011;53960;51.826;5.850;2023-07-28T09:13:14;32.95;;;14.43;;
67053;SDS011;53960;51.826;5.850;2023-07-28T09:15:41;29.88;;;14.98;;
67053;SDS011;53960;51.826;5.850;2023-07-28T09:18:10;33.33;;;16.60;;
67053;SDS011;53960;51.826;5.850;2023-07-28T09:20:40;31.77;;;15.77;;
67053;SDS011;53960;51.826;5.850;2023-07-28T09:23:06;31.42;;;15.75;;
67053;SDS011;53960;51.826;5.850;2023-07-28T09:25:33;32.45;;;15.68;;
67053;SDS011;53960;51.826;5.850;2023-07-28T09:28:00;27.87;;;15.37;;
67053;SDS011;53960;51.826;5.850;2023-07-28T09:30:26;29.80;;;15.48;;
67053;SDS011;53960;51.826;5.850;2023-07-28T09:32:52;30.08;;;16.67;;
67053;SDS011;53960;51.826;5.850;2023-07-28T09:35:20;30.57;;;16.03;;
67053;SDS011;53960;51.826;5.850;2023-07-28T09:37:47;32.72;;;17.13;;
67053;SDS011;53960;51.826;5.850;2023-07-28T09:40:15;30.30;;;16.52;;
67053;SDS011;53960;51.826;5.850;2023-07-28T09:42:42;30.42;;;15.95;;
67053;SDS011;53960;51.826;5.850;2023-07-28T09:45:14;27.83;;;15.40;;
67053;SDS011;53960;51.826;5.850;2023-07-28T09:47:41;28.73;;;14.80;;
67053;SDS011;53960;51.826;5.850;2023-07-28T09:50:09;30.75;;;15.60;;
67053;SDS011;53960;51.826;5.850;2023-07-28T09:52:39;26.90;;;14.93;;
67053;SDS011;53960;51.826;5.850;2023-07-28T09:55:15;28.85;;;15.65;;
67053;SDS011;53960;51.826;5.850;2023-07-28T09:57:46;29.90;;;15.77;;
67053;SDS011;53960;51.826;5.850;2023-07-28T10:00:16;25.17;;;14.67;;
67053;SDS011;53960;51.826;5.850;2023-07-28T10:02:43;27.15;;;14.05;;
67053;SDS011;53960;51.826;5.850;2023-07-28T10:05:09;30.23;;;14.82;;
67053;SDS011;53960;51.826;5.850;2023-07-28T10:07:35;26.30;;;13.63;;
67053;SDS011;53960;51.826;5.850;2023-07-28T10:10:04;23.97;;;13.73;;
67053;SDS011;53960;51.826;5.850;2023-07-28T10:12:39;24.83;;;13.85;;
67053;SDS011;53960;51.826;5.850;2023-07-28T10:15:12;22.85;;;13.20;;
67053;SDS011;53960;51.826;5.850;2023-07-28T10:17:41;25.13;;;13.32;;
67053;SDS011;53960;51.826;5.850;2023-07-28T10:20:26;25.05;;;13.38;;
67053;SDS011;53960;51.826;5.850;2023-07-28T10:23:12;23.97;;;13.43;;
67053;SDS011;53960;51.826;5.850;2023-07-28T10:25:39;22.50;;;12.75;;
67053;SDS011;53960;51.826;5.850;2023-07-28T10:28:05;23.38;;;13.10;;
67053;SDS011;53960;51.826;5.850;2023-07-28T10:30:36;21.90;;;11.77;;
67053;SDS011;53960;51.826;5.850;2023-07-28T10:33:03;20.90;;;11.70;;
67053;SDS011;53960;51.826;5.850;2023-07-28T10:35:29;23.50;;;11.93;;
67053;SDS011;53960;51.826;5.850;2023-07-28T10:37:57;20.23;;;10.63;;
67053;SDS011;53960;51.826;5.850;2023-07-28T10:40:32;18.38;;;10.55;;
67053;SDS011;53960;51.826;5.850;2023-07-28T10:43:00;18.73;;;9.73;;
67053;SDS011;53960;51.826;5.850;2023-07-28T10:45:27;19.35;;;10.00;;
67053;SDS011;53960;51.826;5.850;2023-07-28T10:47:54;19.20;;;10.20;;
67053;SDS011;53960;51.826;5.850;2023-07-28T10:50:21;20.60;;;11.30;;
67053;SDS011;53960;51.826;5.850;2023-07-28T10:52:47;20.73;;;10.98;;
67053;SDS011;53960;51.826;5.850;2023-07-28T10:55:16;20.70;;;11.03;;
67053;SDS011;53960;51.826;5.850;2023-07-28T10:57:46;18.35;;;10.50;;
67053;SDS011;53960;51.826;5.850;2023-07-28T11:00:14;19.55;;;10.68;;
67053;SDS011;53960;51.826;5.850;2023-07-28T11:02:42;18.83;;;11.50;;
67053;SDS011;53960;51.826;5.850;2023-07-28T11:05:11;18.42;;;10.10;;
67053;SDS011;53960;51.826;5.850;2023-07-28T11:07:50;18.50;;;10.50;;
67053;SDS011;53960;51.826;5.850;2023-07-28T11:10:16;19.10;;;10.98;;
67053;SDS011;53960;51.826;5.850;2023-07-28T11:12:45;17.40;;;9.27;;
67053;SDS011;53960;51.826;5.850;2023-07-28T11:15:12;18.57;;;10.07;;
67053;SDS011;53960;51.826;5.850;2023-07-28T11:17:43;18.63;;;10.75;;
67053;SDS011;53960;51.826;5.850;2023-07-28T11:22:43;17.15;;;10.25;;
67053;SDS011;53960;51.826;5.850;2023-07-28T11:25:10;18.52;;;10.60;;
67053;SDS011;53960;51.826;5.850;2023-07-28T11:27:37;20.97;;;10.87;;
67053;SDS011;53960;51.826;5.850;2023-07-28T11:30:03;18.92;;;10.68;;
67053;SDS011;53960;51.826;5.850;2023-07-28T11:32:30;19.05;;;10.70;;
67053;SDS011;53960;51.826;5.850;2023-07-28T11:35:02;18.17;;;10.32;;
67053;SDS011;53960;51.826;5.850;2023-07-28T11:37:31;16.85;;;10.25;;
67053;SDS011;53960;51.826;5.850;2023-07-28T11:39:58;17.40;;;9.97;;
67053;SDS011;53960;51.826;5.850;2023-07-28T11:42:31;16.95;;;9.70;;
67053;SDS011;53960;51.826;5.850;2023-07-28T11:44:59;17.42;;;9.88;;
67053;SDS011;53960;51.826;5.850;2023-07-28T11:47:24;16.33;;;9.83;;
67053;SDS011;53960;51.826;5.850;2023-07-28T11:49:49;16.40;;;9.07;;
67053;SDS011;53960;51.826;5.850;2023-07-28T11:52:16;16.50;;;9.33;;
67053;SDS011;53960;51.826;5.850;2023-07-28T11:54:42;16.52;;;9.27;;
67053;SDS011;53960;51.826;5.850;2023-07-28T11:57:09;15.00;;;8.98;;
67053;SDS011;53960;51.826;5.850;2023-07-28T11:59:34;14.63;;;8.90;;
67053;SDS011;53960;51.826;5.850;2023-07-28T12:02:00;13.97;;;7.90;;
67053;SDS011;53960;51.826;5.850;2023-07-28T12:04:30;16.05;;;8.52;;
67053;SDS011;53960;51.826;5.850;2023-07-28T12:07:39;15.32;;;8.77;;
67053;SDS011;53960;51.826;5.850;2023-07-28T12:09:52;16.35;;;8.93;;
67053;SDS011;53960;51.826;5.850;2023-07-28T12:12:20;15.27;;;8.30;;
67053;SDS011;53960;51.826;5.850;2023-07-28T12:14:48;15.17;;;8.43;;
67053;SDS011;53960;51.826;5.850;2023-07-28T12:17:19;14.32;;;8.43;;
67053;SDS011;53960;51.826;5.850;2023-07-28T12:20:05;15.80;;;8.73;;
67053;SDS011;53960;51.826;5.850;2023-07-28T12:22:41;14.98;;;8.10;;
67053;SDS011;53960;51.826;5.850;2023-07-28T12:25:07;14.18;;;7.55;;
67053;SDS011;53960;51.826;5.850;2023-07-28T12:27:33;15.70;;;8.83;;
67053;SDS011;53960;51.826;5.850;2023-07-28T12:29:59;15.68;;;8.43;;
67053;SDS011;53960;51.826;5.850;2023-07-28T12:32:26;14.65;;;8.05;;
67053;SDS011;53960;51.826;5.850;2023-07-28T12:34:51;14.33;;;7.93;;
67053;SDS011;53960;51.826;5.850;2023-07-28T12:37:17;13.50;;;8.57;;
67053;SDS011;53960;51.826;5.850;2023-07-28T12:39:44;13.13;;;7.33;;
67053;SDS011;53960;51.826;5.850;2023-07-28T12:42:10;12.90;;;7.80;;
67053;SDS011;53960;51.826;5.850;2023-07-28T12:44:36;13.13;;;7.00;;
67053;SDS011;53960;51.826;5.850;2023-07-28T12:47:02;12.13;;;7.10;;
67053;SDS011;53960;51.826;5.850;2023-07-28T12:49:28;13.65;;;6.90;;
67053;SDS011;53960;51.826;5.850;2023-07-28T12:51:54;12.13;;;7.20;;
67053;SDS011;53960;51.826;5.850;2023-07-28T12:54:21;12.10;;;7.47;;
67053;SDS011;53960;51.826;5.850;2023-07-28T12:56:47;11.90;;;7.30;;
67053;SDS011;53960;51.826;5.850;2023-07-28T12:59:13;11.50;;;6.18;;
67053;SDS011;53960;51.826;5.850;2023-07-28T13:01:39;11.45;;;6.30;;
67053;SDS011;53960;51.826;5.850;2023-07-28T13:04:04;11.80;;;6.90;;
67053;SDS011;53960;51.826;5.850;2023-07-28T13:06:29;12.70;;;6.57;;
67053;SDS011;53960;51.826;5.850;2023-07-28T13:08:55;13.13;;;7.00;;
67053;SDS011;53960;51.826;5.850;2023-07-28T13:11:20;13.33;;;6.70;;
67053;SDS011;53960;51.826;5.850;2023-07-28T13:13:45;11.93;;;6.70;;
67053;SDS011;53960;51.826;5.850;2023-07-28T13:16:11;11.27;;;6.03;;
67053;SDS011;53960;51.826;5.850;2023-07-28T13:18:36;12.07;;;6.97;;
67053;SDS011;53960;51.826;5.850;2023-07-28T13:21:01;11.77;;;6.27;;
67053;SDS011;53960;51.826;5.850;2023-07-28T13:23:27;13.47;;;8.40;;
67053;SDS011;53960;51.826;5.850;2023-07-28T13:25:52;14.13;;;8.07;;
67053;SDS011;53960;51.826;5.850;2023-07-28T13:28:18;15.40;;;8.40;;
67053;SDS011;53960;51.826;5.850;2023-07-28T13:30:43;13.87;;;8.40;;
67053;SDS011;53960;51.826;5.850;2023-07-28T13:33:09;15.30;;;8.77;;
67053;SDS011;53960;51.826;5.850;2023-07-28T13:35:34;14.70;;;8.37;;
67053;SDS011;53960;51.826;5.850;2023-07-28T13:38:00;14.65;;;8.43;;
67053;SDS011;53960;51.826;5.850;2023-07-28T13:40:25;15.10;;;7.90;;
67053;SDS011;53960;51.826;5.850;2023-07-28T13:42:50;14.57;;;8.20;;
67053;SDS011;53960;51.826;5.850;2023-07-28T13:45:16;14.63;;;8.50;;
67053;SDS011;53960;51.826;5.850;2023-07-28T13:47:41;14.33;;;8.37;;
67053;SDS011;53960;51.826;5.850;2023-07-28T13:50:07;15.00;;;8.15;;
67053;SDS011;53960;51.826;5.850;2023-07-28T13:52:32;16.20;;;8.40;;
67053;SDS011;53960;51.826;5.850;2023-07-28T13:54:57;13.23;;;6.97;;
67053;SDS011;53960;51.826;5.850;2023-07-28T13:57:23;12.47;;;7.77;;
67053;SDS011;53960;51.826;5.850;2023-07-28T13:59:49;15.05;;;7.65;;
67053;SDS011;53960;51.826;5.850;2023-07-28T14:02:16;14.75;;;8.10;;
67053;SDS011;53960;51.826;5.850;2023-07-28T14:04:42;14.57;;;8.00;;
67053;SDS011;53960;51.826;5.850;2023-07-28T14:07:08;13.43;;;7.30;;
67053;SDS011;53960;51.826;5.850;2023-07-28T14:09:33;11.33;;;6.63;;
67053;SDS011;53960;51.826;5.850;2023-07-28T14:11:59;14.27;;;7.57;;
67053;SDS011;53960;51.826;5.850;2023-07-28T14:14:24;12.47;;;6.73;;
67053;SDS011;53960;51.826;5.850;2023-07-28T14:16:49;14.37;;;7.87;;
67053;SDS011;53960;51.826;5.850;2023-07-28T14:19:15;13.63;;;7.83;;
67053;SDS011;53960;51.826;5.850;2023-07-28T14:21:40;12.77;;;6.97;;
67053;SDS011;53960;51.826;5.850;2023-07-28T14:24:05;15.27;;;8.23;;
67053;SDS011;53960;51.826;5.850;2023-07-28T14:26:31;13.70;;;7.33;;
67053;SDS011;53960;51.826;5.850;2023-07-28T14:28:56;13.43;;;7.30;;
67053;SDS011;53960;51.826;5.850;2023-07-28T14:31:22;16.07;;;8.20;;